Kithnos, Greece
Current Conditions -  °F | °C
As of 10:50 AM on Thursday 23 Oct 2014 (Local Time) from LGSO Reporting Station
Scattered Clouds Scattered Clouds  
Wind Chill: 73°   Ceiling: Unl
Heat Index: 73°   Visibility: 6mi
Dew Point: 64°   Wind: 18mph
Humidity: 73%   Direction: 160°SSE
Pressure: 29.62"   Gusts: NA
Location:  37.42°N, 24.43°E
Report Text: LGSO 230750Z 16016KT 9999 SCT018 23/18 Q1003
Loading
Personal Weather Stations






























Interactive Weather Map New forecast layout! Learn more

10-Day Weather Forecast

Advertisements
Track Severe Weather on mobile